sensor_id;sensor_type;location;lat;lon;timestamp;temperature;humidity
32187;DHT22;18686;53.084;8.872;2023-07-20T00:00:17;14.70;99.90
32187;DHT22;18686;53.084;8.872;2023-07-20T00:02:45;14.70;99.90
32187;DHT22;18686;53.084;8.872;2023-07-20T00:05:14;14.80;99.90
32187;DHT22;18686;53.084;8.872;2023-07-20T00:07:45;14.80;99.90
32187;DHT22;18686;53.084;8.872;2023-07-20T00:10:13;14.90;99.90
32187;DHT22;18686;53.084;8.872;2023-07-20T00:12:43;14.90;99.90
32187;DHT22;18686;53.084;8.872;2023-07-20T00:15:14;14.90;99.90
32187;DHT22;18686;53.084;8.872;2023-07-20T00:17:43;14.90;99.90
32187;DHT22;18686;53.084;8.872;2023-07-20T00:20:11;15.00;99.90
32187;DHT22;18686;53.084;8.872;2023-07-20T00:22:41;15.00;99.90
32187;DHT22;18686;53.084;8.872;2023-07-20T00:25:10;15.00;99.90
32187;DHT22;18686;53.084;8.872;2023-07-20T00:27:39;15.00;99.90
32187;DHT22;18686;53.084;8.872;2023-07-20T00:30:09;15.10;99.90
32187;DHT22;18686;53.084;8.872;2023-07-20T00:32:38;15.00;99.90
32187;DHT22;18686;53.084;8.872;2023-07-20T00:35:07;15.00;99.90
32187;DHT22;18686;53.084;8.872;2023-07-20T00:37:35;15.10;99.90
32187;DHT22;18686;53.084;8.872;2023-07-20T00:40:05;15.10;99.90
32187;DHT22;18686;53.084;8.872;2023-07-20T00:42:34;15.10;99.90
32187;DHT22;18686;53.084;8.872;2023-07-20T00:45:03;15.10;99.90
32187;DHT22;18686;53.084;8.872;2023-07-20T00:47:33;15.10;99.90
32187;DHT22;18686;53.084;8.872;2023-07-20T00:50:02;15.10;99.90
32187;DHT22;18686;53.084;8.872;2023-07-20T00:52:31;15.20;99.90
32187;DHT22;18686;53.084;8.872;2023-07-20T00:55:01;15.20;99.90
32187;DHT22;18686;53.084;8.872;2023-07-20T00:57:29;15.20;99.90
32187;DHT22;18686;53.084;8.872;2023-07-20T00:59:58;15.20;99.90
32187;DHT22;18686;53.084;8.872;2023-07-20T01:02:27;15.20;99.90
32187;DHT22;18686;53.084;8.872;2023-07-20T01:04:57;15.30;99.90
32187;DHT22;18686;53.084;8.872;2023-07-20T01:07:30;15.30;99.90
32187;DHT22;18686;53.084;8.872;2023-07-20T01:10:02;15.30;99.90
32187;DHT22;18686;53.084;8.872;2023-07-20T01:12:40;15.30;99.90
32187;DHT22;18686;53.084;8.872;2023-07-20T01:15:10;15.30;99.90
32187;DHT22;18686;53.084;8.872;2023-07-20T01:17:39;15.30;99.90
32187;DHT22;18686;53.084;8.872;2023-07-20T01:20:12;15.20;99.90
32187;DHT22;18686;53.084;8.872;2023-07-20T01:23:09;15.20;99.90
32187;DHT22;18686;53.084;8.872;2023-07-20T01:26:08;15.20;99.90
32187;DHT22;18686;53.084;8.872;2023-07-20T01:28:57;15.10;99.90
32187;DHT22;18686;53.084;8.872;2023-07-20T01:31:34;15.10;99.90
32187;DHT22;18686;53.084;8.872;2023-07-20T01:34:06;15.10;99.90
32187;DHT22;18686;53.084;8.872;2023-07-20T01:36:37;15.10;99.90
32187;DHT22;18686;53.084;8.872;2023-07-20T01:39:08;15.00;99.90
32187;DHT22;18686;53.084;8.872;2023-07-20T01:41:37;15.00;99.90
32187;DHT22;18686;53.084;8.872;2023-07-20T01:44:05;15.00;99.90
32187;DHT22;18686;53.084;8.872;2023-07-20T01:46:35;15.00;99.90
32187;DHT22;18686;53.084;8.872;2023-07-20T01:49:04;14.90;99.90
32187;DHT22;18686;53.084;8.872;2023-07-20T01:51:32;14.90;99.90
32187;DHT22;18686;53.084;8.872;2023-07-20T01:54:01;14.90;99.90
32187;DHT22;18686;53.084;8.872;2023-07-20T01:56:29;14.90;99.90
32187;DHT22;18686;53.084;8.872;2023-07-20T01:58:57;14.90;99.90
32187;DHT22;18686;53.084;8.872;2023-07-20T02:01:26;14.90;99.90
32187;DHT22;18686;53.084;8.872;2023-07-20T02:03:57;14.90;99.90
32187;DHT22;18686;53.084;8.872;2023-07-20T02:06:25;14.80;99.90
32187;DHT22;18686;53.084;8.872;2023-07-20T02:08:54;14.80;99.90
32187;DHT22;18686;53.084;8.872;2023-07-20T02:11:22;14.80;99.90
32187;DHT22;18686;53.084;8.872;2023-07-20T02:13:50;14.80;99.90
32187;DHT22;18686;53.084;8.872;2023-07-20T02:16:19;14.80;99.90
32187;DHT22;18686;53.084;8.872;2023-07-20T02:18:47;14.80;99.90
32187;DHT22;18686;53.084;8.872;2023-07-20T02:21:17;14.80;99.90
32187;DHT22;18686;53.084;8.872;2023-07-20T02:23:46;14.80;99.90
32187;DHT22;18686;53.084;8.872;2023-07-20T02:26:16;14.80;99.90
32187;DHT22;18686;53.084;8.872;2023-07-20T02:28:45;14.80;99.90
32187;DHT22;18686;53.084;8.872;2023-07-20T02:31:32;14.70;99.90
32187;DHT22;18686;53.084;8.872;2023-07-20T02:34:00;14.70;99.90
32187;DHT22;18686;53.084;8.872;2023-07-20T02:36:30;14.70;99.90
32187;DHT22;18686;53.084;8.872;2023-07-20T02:38:59;14.60;99.90
32187;DHT22;18686;53.084;8.872;2023-07-20T02:41:29;14.60;99.90
32187;DHT22;18686;53.084;8.872;2023-07-20T02:43:58;14.50;99.90
32187;DHT22;18686;53.084;8.872;2023-07-20T02:46:26;14.50;99.90
32187;DHT22;18686;53.084;8.872;2023-07-20T02:48:58;14.40;99.90
32187;DHT22;18686;53.084;8.872;2023-07-20T02:51:26;14.40;99.90
32187;DHT22;18686;53.084;8.872;2023-07-20T02:53:56;14.40;99.90
32187;DHT22;18686;53.084;8.872;2023-07-20T02:56:24;14.40;99.90
32187;DHT22;18686;53.084;8.872;2023-07-20T02:58:53;14.30;99.90
32187;DHT22;18686;53.084;8.872;2023-07-20T03:01:21;14.30;99.90
32187;DHT22;18686;53.084;8.872;2023-07-20T03:03:50;14.30;99.90
32187;DHT22;18686;53.084;8.872;2023-07-20T03:06:19;14.30;99.90
32187;DHT22;18686;53.084;8.872;2023-07-20T03:08:48;14.30;99.90
32187;DHT22;18686;53.084;8.872;2023-07-20T03:11:20;14.30;99.90
32187;DHT22;18686;53.084;8.872;2023-07-20T03:13:49;14.20;99.90
32187;DHT22;18686;53.084;8.872;2023-07-20T03:16:19;14.30;99.90
32187;DHT22;18686;53.084;8.872;2023-07-20T03:18:49;14.20;99.90
32187;DHT22;18686;53.084;8.872;2023-07-20T03:21:18;14.30;99.90
32187;DHT22;18686;53.084;8.872;2023-07-20T03:23:46;14.30;99.90
32187;DHT22;18686;53.084;8.872;2023-07-20T03:26:16;14.20;99.90
32187;DHT22;18686;53.084;8.872;2023-07-20T03:28:46;14.30;99.90
32187;DHT22;18686;53.084;8.872;2023-07-20T03:31:15;14.20;99.90
32187;DHT22;18686;53.084;8.872;2023-07-20T03:33:43;14.30;99.90
32187;DHT22;18686;53.084;8.872;2023-07-20T03:36:12;14.30;99.90
32187;DHT22;18686;53.084;8.872;2023-07-20T03:38:40;14.30;99.90
32187;DHT22;18686;53.084;8.872;2023-07-20T03:41:09;14.30;99.90
32187;DHT22;18686;53.084;8.872;2023-07-20T03:43:39;14.30;99.90
32187;DHT22;18686;53.084;8.872;2023-07-20T03:46:09;14.30;99.90
32187;DHT22;18686;53.084;8.872;2023-07-20T03:48:40;14.40;99.90
32187;DHT22;18686;53.084;8.872;2023-07-20T03:51:08;14.40;99.90
32187;DHT22;18686;53.084;8.872;2023-07-20T03:53:37;14.50;99.90
32187;DHT22;18686;53.084;8.872;2023-07-20T03:56:05;14.50;99.90
32187;DHT22;18686;53.084;8.872;2023-07-20T03:58:34;14.50;99.90
32187;DHT22;18686;53.084;8.872;2023-07-20T04:01:02;14.60;99.90
32187;DHT22;18686;53.084;8.872;2023-07-20T04:03:32;14.60;99.90
32187;DHT22;18686;53.084;8.872;2023-07-20T04:06:00;14.60;99.90
32187;DHT22;18686;53.084;8.872;2023-07-20T04:08:29;14.60;99.90
32187;DHT22;18686;53.084;8.872;2023-07-20T04:10:57;14.70;99.90
32187;DHT22;18686;53.084;8.872;2023-07-20T04:13:26;14.70;99.90
32187;DHT22;18686;53.084;8.872;2023-07-20T04:15:55;14.70;99.90
32187;DHT22;18686;53.084;8.872;2023-07-20T04:18:23;14.70;99.90
32187;DHT22;18686;53.084;8.872;2023-07-20T04:20:53;14.70;99.90
32187;DHT22;18686;53.084;8.872;2023-07-20T04:23:22;14.70;99.90
32187;DHT22;18686;53.084;8.872;2023-07-20T04:25:51;14.80;99.90
32187;DHT22;18686;53.084;8.872;2023-07-20T04:28:21;14.80;99.90
32187;DHT22;18686;53.084;8.872;2023-07-20T04:30:54;14.80;99.90
32187;DHT22;18686;53.084;8.872;2023-07-20T04:33:22;14.80;99.90
32187;DHT22;18686;53.084;8.872;2023-07-20T04:35:53;14.90;99.90
32187;DHT22;18686;53.084;8.872;2023-07-20T04:38:28;14.90;99.90
32187;DHT22;18686;53.084;8.872;2023-07-20T04:41:04;14.90;99.90
32187;DHT22;18686;53.084;8.872;2023-07-20T04:43:41;14.90;99.90
32187;DHT22;18686;53.084;8.872;2023-07-20T04:46:10;14.80;99.90
32187;DHT22;18686;53.084;8.872;2023-07-20T04:48:39;14.80;99.90
32187;DHT22;18686;53.084;8.872;2023-07-20T04:51:10;14.80;99.90
32187;DHT22;18686;53.084;8.872;2023-07-20T04:53:39;14.80;99.90
32187;DHT22;18686;53.084;8.872;2023-07-20T04:56:09;14.80;99.90
32187;DHT22;18686;53.084;8.872;2023-07-20T04:58:38;14.80;99.90
32187;DHT22;18686;53.084;8.872;2023-07-20T05:01:07;14.90;99.90
32187;DHT22;18686;53.084;8.872;2023-07-20T05:03:36;14.90;99.90
32187;DHT22;18686;53.084;8.872;2023-07-20T05:06:07;15.00;99.90
32187;DHT22;18686;53.084;8.872;2023-07-20T05:08:36;15.00;99.90
32187;DHT22;18686;53.084;8.872;2023-07-20T05:11:06;15.00;99.90
32187;DHT22;18686;53.084;8.872;2023-07-20T05:13:35;15.00;99.90
32187;DHT22;18686;53.084;8.872;2023-07-20T05:16:03;15.10;99.90
32187;DHT22;18686;53.084;8.872;2023-07-20T05:18:32;15.10;99.90
32187;DHT22;18686;53.084;8.872;2023-07-20T05:21:01;15.10;99.90
32187;DHT22;18686;53.084;8.872;2023-07-20T05:23:30;15.20;99.90
32187;DHT22;18686;53.084;8.872;2023-07-20T05:26:00;15.20;99.90
32187;DHT22;18686;53.084;8.872;2023-07-20T05:28:28;15.10;99.90
32187;DHT22;18686;53.084;8.872;2023-07-20T05:30:57;15.20;99.90
32187;DHT22;18686;53.084;8.872;2023-07-20T05:33:26;15.20;99.90
32187;DHT22;18686;53.084;8.872;2023-07-20T05:35:55;15.30;99.90
32187;DHT22;18686;53.084;8.872;2023-07-20T05:38:23;15.40;99.90
32187;DHT22;18686;53.084;8.872;2023-07-20T05:40:52;15.50;99.90
32187;DHT22;18686;53.084;8.872;2023-07-20T05:43:22;15.60;99.90
32187;DHT22;18686;53.084;8.872;2023-07-20T05:45:50;15.70;99.90
32187;DHT22;18686;53.084;8.872;2023-07-20T05:48:18;15.80;99.90
32187;DHT22;18686;53.084;8.872;2023-07-20T05:50:47;15.90;99.90
32187;DHT22;18686;53.084;8.872;2023-07-20T05:53:15;16.00;99.90
32187;DHT22;18686;53.084;8.872;2023-07-20T05:55:44;16.00;99.90
32187;DHT22;18686;53.084;8.872;2023-07-20T05:58:12;16.20;99.90
32187;DHT22;18686;53.084;8.872;2023-07-20T06:00:42;16.30;99.90
32187;DHT22;18686;53.084;8.872;2023-07-20T06:03:10;16.40;99.90
32187;DHT22;18686;53.084;8.872;2023-07-20T06:05:38;16.50;99.90
32187;DHT22;18686;53.084;8.872;2023-07-20T06:08:07;16.60;99.90
32187;DHT22;18686;53.084;8.872;2023-07-20T06:10:36;16.70;99.90
32187;DHT22;18686;53.084;8.872;2023-07-20T06:13:04;16.80;99.90
32187;DHT22;18686;53.084;8.872;2023-07-20T06:15:33;17.00;99.90
32187;DHT22;18686;53.084;8.872;2023-07-20T06:18:03;17.00;99.90
32187;DHT22;18686;53.084;8.872;2023-07-20T06:20:32;17.10;99.90
32187;DHT22;18686;53.084;8.872;2023-07-20T06:23:00;17.20;99.90
32187;DHT22;18686;53.084;8.872;2023-07-20T06:25:29;17.30;99.90
32187;DHT22;18686;53.084;8.872;2023-07-20T06:27:57;17.40;99.90
32187;DHT22;18686;53.084;8.872;2023-07-20T06:30:26;17.60;99.90
32187;DHT22;18686;53.084;8.872;2023-07-20T06:32:55;17.70;99.90
32187;DHT22;18686;53.084;8.872;2023-07-20T06:35:24;17.90;99.90
32187;DHT22;18686;53.084;8.872;2023-07-20T06:37:53;18.10;99.90
32187;DHT22;18686;53.084;8.872;2023-07-20T06:40:21;18.40;99.90
32187;DHT22;18686;53.084;8.872;2023-07-20T06:42:53;18.60;99.90
32187;DHT22;18686;53.084;8.872;2023-07-20T06:45:24;18.80;99.90
32187;DHT22;18686;53.084;8.872;2023-07-20T06:47:52;19.00;99.90
32187;DHT22;18686;53.084;8.872;2023-07-20T06:50:21;19.20;99.90
32187;DHT22;18686;53.084;8.872;2023-07-20T06:52:55;19.50;99.90
32187;DHT22;18686;53.084;8.872;2023-07-20T06:55:25;19.80;99.90
32187;DHT22;18686;53.084;8.872;2023-07-20T06:57:58;20.00;99.90
32187;DHT22;18686;53.084;8.872;2023-07-20T07:00:26;20.20;99.90
32187;DHT22;18686;53.084;8.872;2023-07-20T07:02:55;20.50;99.90
32187;DHT22;18686;53.084;8.872;2023-07-20T07:05:23;20.80;99.90
32187;DHT22;18686;53.084;8.872;2023-07-20T07:08:03;21.10;99.90
32187;DHT22;18686;53.084;8.872;2023-07-20T07:10:34;21.20;99.40
32187;DHT22;18686;53.084;8.872;2023-07-20T07:13:03;21.50;98.90
32187;DHT22;18686;53.084;8.872;2023-07-20T07:15:32;21.80;98.10
32187;DHT22;18686;53.084;8.872;2023-07-20T07:18:00;22.10;95.70
32187;DHT22;18686;53.084;8.872;2023-07-20T07:20:30;22.50;94.80
32187;DHT22;18686;53.084;8.872;2023-07-20T07:22:59;22.80;93.00
32187;DHT22;18686;53.084;8.872;2023-07-20T07:25:29;23.10;91.60
32187;DHT22;18686;53.084;8.872;2023-07-20T07:27:59;23.30;86.80
32187;DHT22;18686;53.084;8.872;2023-07-20T07:30:28;23.50;83.70
32187;DHT22;18686;53.084;8.872;2023-07-20T07:32:58;23.70;81.60
32187;DHT22;18686;53.084;8.872;2023-07-20T07:35:27;23.80;77.50
32187;DHT22;18686;53.084;8.872;2023-07-20T07:37:55;23.80;75.80
32187;DHT22;18686;53.084;8.872;2023-07-20T07:40:46;23.90;71.10
32187;DHT22;18686;53.084;8.872;2023-07-20T07:43:14;24.00;70.80
32187;DHT22;18686;53.084;8.872;2023-07-20T07:45:42;24.10;69.90
32187;DHT22;18686;53.084;8.872;2023-07-20T07:48:10;24.30;67.60
32187;DHT22;18686;53.084;8.872;2023-07-20T07:50:40;24.40;66.60
32187;DHT22;18686;53.084;8.872;2023-07-20T07:53:08;24.60;66.50
32187;DHT22;18686;53.084;8.872;2023-07-20T07:55:37;24.60;64.10
32187;DHT22;18686;53.084;8.872;2023-07-20T07:58:07;24.70;63.50
32187;DHT22;18686;53.084;8.872;2023-07-20T08:00:35;24.60;62.30
32187;DHT22;18686;53.084;8.872;2023-07-20T08:03:06;24.40;60.80
32187;DHT22;18686;53.084;8.872;2023-07-20T08:05:35;24.20;59.60
32187;DHT22;18686;53.084;8.872;2023-07-20T08:08:04;24.00;59.80
32187;DHT22;18686;53.084;8.872;2023-07-20T08:10:32;23.80;60.40
32187;DHT22;18686;53.084;8.872;2023-07-20T08:13:00;23.70;59.50
32187;DHT22;18686;53.084;8.872;2023-07-20T08:15:30;23.80;60.70
32187;DHT22;18686;53.084;8.872;2023-07-20T08:17:58;23.90;60.50
32187;DHT22;18686;53.084;8.872;2023-07-20T08:20:27;23.90;60.10
32187;DHT22;18686;53.084;8.872;2023-07-20T08:22:55;24.20;59.40
32187;DHT22;18686;53.084;8.872;2023-07-20T08:25:25;24.70;58.90
32187;DHT22;18686;53.084;8.872;2023-07-20T08:27:53;25.20;58.20
32187;DHT22;18686;53.084;8.872;2023-07-20T08:30:22;25.50;56.50
32187;DHT22;18686;53.084;8.872;2023-07-20T08:32:52;25.70;55.10
32187;DHT22;18686;53.084;8.872;2023-07-20T08:35:21;25.80;54.30
32187;DHT22;18686;53.084;8.872;2023-07-20T08:37:49;25.60;54.20
32187;DHT22;18686;53.084;8.872;2023-07-20T08:40:18;25.20;54.90
32187;DHT22;18686;53.084;8.872;2023-07-20T08:42:46;24.80;54.60
32187;DHT22;18686;53.084;8.872;2023-07-20T08:45:16;24.70;54.70
32187;DHT22;18686;53.084;8.872;2023-07-20T08:47:45;24.70;54.70
32187;DHT22;18686;53.084;8.872;2023-07-20T08:50:18;24.80;54.00
32187;DHT22;18686;53.084;8.872;2023-07-20T08:52:48;24.80;53.50
32187;DHT22;18686;53.084;8.872;2023-07-20T08:55:16;24.70;53.50
32187;DHT22;18686;53.084;8.872;2023-07-20T08:57:46;24.70;53.60
32187;DHT22;18686;53.084;8.872;2023-07-20T09:00:17;24.70;54.50
32187;DHT22;18686;53.084;8.872;2023-07-20T09:02:49;24.50;53.50
32187;DHT22;18686;53.084;8.872;2023-07-20T09:05:20;24.40;54.70
32187;DHT22;18686;53.084;8.872;2023-07-20T09:07:51;24.50;54.20
32187;DHT22;18686;53.084;8.872;2023-07-20T09:10:21;24.90;52.30
32187;DHT22;18686;53.084;8.872;2023-07-20T09:12:50;25.30;52.40
32187;DHT22;18686;53.084;8.872;2023-07-20T09:15:20;25.80;51.20
32187;DHT22;18686;53.084;8.872;2023-07-20T09:17:49;26.20;50.40
32187;DHT22;18686;53.084;8.872;2023-07-20T09:20:20;26.00;47.40
32187;DHT22;18686;53.084;8.872;2023-07-20T09:22:51;26.10;48.20
32187;DHT22;18686;53.084;8.872;2023-07-20T09:25:22;26.30;47.20
32187;DHT22;18686;53.084;8.872;2023-07-20T09:27:55;26.30;46.40
32187;DHT22;18686;53.084;8.872;2023-07-20T09:30:26;26.50;46.70
32187;DHT22;18686;53.084;8.872;2023-07-20T09:32:57;26.90;46.60
32187;DHT22;18686;53.084;8.872;2023-07-20T09:35:27;27.40;46.60
32187;DHT22;18686;53.084;8.872;2023-07-20T09:38:09;27.60;44.70
32187;DHT22;18686;53.084;8.872;2023-07-20T09:40:40;27.70;44.30
32187;DHT22;18686;53.084;8.872;2023-07-20T09:43:12;27.60;43.80
32187;DHT22;18686;53.084;8.872;2023-07-20T09:45:44;27.80;43.90
32187;DHT22;18686;53.084;8.872;2023-07-20T09:48:16;28.10;43.80
32187;DHT22;18686;53.084;8.872;2023-07-20T09:50:54;28.50;43.30
32187;DHT22;18686;53.084;8.872;2023-07-20T09:53:24;28.70;44.00
32187;DHT22;18686;53.084;8.872;2023-07-20T09:55:53;29.00;43.30
32187;DHT22;18686;53.084;8.872;2023-07-20T09:58:22;29.40;42.30
32187;DHT22;18686;53.084;8.872;2023-07-20T10:00:52;29.60;41.20
32187;DHT22;18686;53.084;8.872;2023-07-20T10:03:29;29.90;41.50
32187;DHT22;18686;53.084;8.872;2023-07-20T10:06:06;30.30;39.60
32187;DHT22;18686;53.084;8.872;2023-07-20T10:08:39;30.60;39.60
32187;DHT22;18686;53.084;8.872;2023-07-20T10:11:12;30.40;40.60
32187;DHT22;18686;53.084;8.872;2023-07-20T10:13:44;30.50;40.10
32187;DHT22;18686;53.084;8.872;2023-07-20T10:16:17;31.10;39.50
32187;DHT22;18686;53.084;8.872;2023-07-20T10:18:54;31.40;39.00
32187;DHT22;18686;53.084;8.872;2023-07-20T10:21:27;31.20;39.60
32187;DHT22;18686;53.084;8.872;2023-07-20T10:24:00;30.30;40.70
32187;DHT22;18686;53.084;8.872;2023-07-20T10:26:29;29.40;41.80
32187;DHT22;18686;53.084;8.872;2023-07-20T10:28:59;28.40;43.20
32187;DHT22;18686;53.084;8.872;2023-07-20T10:31:28;27.50;44.80
32187;DHT22;18686;53.084;8.872;2023-07-20T10:33:57;27.00;46.00
32187;DHT22;18686;53.084;8.872;2023-07-20T10:36:28;26.90;46.80
32187;DHT22;18686;53.084;8.872;2023-07-20T10:38:58;27.40;46.50
32187;DHT22;18686;53.084;8.872;2023-07-20T10:41:29;27.80;46.40
32187;DHT22;18686;53.084;8.872;2023-07-20T10:43:59;28.40;46.10
32187;DHT22;18686;53.084;8.872;2023-07-20T10:46:41;29.30;45.00
32187;DHT22;18686;53.084;8.872;2023-07-20T10:49:11;30.20;42.40
32187;DHT22;18686;53.084;8.872;2023-07-20T10:51:44;31.50;40.20
32187;DHT22;18686;53.084;8.872;2023-07-20T10:54:47;33.10;38.70
32187;DHT22;18686;53.084;8.872;2023-07-20T10:57:23;35.40;36.40
32187;DHT22;18686;53.084;8.872;2023-07-20T10:59:52;37.60;34.00
32187;DHT22;18686;53.084;8.872;2023-07-20T11:02:58;38.90;31.90
32187;DHT22;18686;53.084;8.872;2023-07-20T11:05:35;40.60;30.00
32187;DHT22;18686;53.084;8.872;2023-07-20T11:08:09;42.30;29.50
32187;DHT22;18686;53.084;8.872;2023-07-20T11:10:38;44.20;28.30
32187;DHT22;18686;53.084;8.872;2023-07-20T11:13:20;45.20;27.20
32187;DHT22;18686;53.084;8.872;2023-07-20T11:16:02;45.40;26.60
32187;DHT22;18686;53.084;8.872;2023-07-20T11:18:35;45.60;26.70
32187;DHT22;18686;53.084;8.872;2023-07-20T11:21:09;46.50;26.20
32187;DHT22;18686;53.084;8.872;2023-07-20T11:23:39;47.10;25.50
32187;DHT22;18686;53.084;8.872;2023-07-20T11:26:08;46.00;25.60
32187;DHT22;18686;53.084;8.872;2023-07-20T11:28:38;44.20;26.00
32187;DHT22;18686;53.084;8.872;2023-07-20T11:31:07;42.30;26.90
32187;DHT22;18686;53.084;8.872;2023-07-20T11:33:35;41.20;27.40
32187;DHT22;18686;53.084;8.872;2023-07-20T11:36:05;40.90;28.00
32187;DHT22;18686;53.084;8.872;2023-07-20T11:38:37;41.80;28.40
32187;DHT22;18686;53.084;8.872;2023-07-20T11:41:10;43.40;27.40
32187;DHT22;18686;53.084;8.872;2023-07-20T11:43:39;44.90;26.70
32187;DHT22;18686;53.084;8.872;2023-07-20T11:46:09;45.10;26.40
32187;DHT22;18686;53.084;8.872;2023-07-20T11:48:38;45.20;26.50
32187;DHT22;18686;53.084;8.872;2023-07-20T11:51:13;46.20;25.90
32187;DHT22;18686;53.084;8.872;2023-07-20T11:53:42;46.80;25.80
32187;DHT22;18686;53.084;8.872;2023-07-20T11:56:12;47.40;25.50
32187;DHT22;18686;53.084;8.872;2023-07-20T11:58:44;47.90;25.10
32187;DHT22;18686;53.084;8.872;2023-07-20T12:01:13;47.10;25.20
32187;DHT22;18686;53.084;8.872;2023-07-20T12:03:42;45.40;25.60
32187;DHT22;18686;53.084;8.872;2023-07-20T12:06:12;42.90;26.30
32187;DHT22;18686;53.084;8.872;2023-07-20T12:08:59;40.00;28.20
32187;DHT22;18686;53.084;8.872;2023-07-20T12:11:33;36.70;29.90
32187;DHT22;18686;53.084;8.872;2023-07-20T12:14:02;34.30;32.10
32187;DHT22;18686;53.084;8.872;2023-07-20T12:16:44;32.20;34.40
32187;DHT22;18686;53.084;8.872;2023-07-20T12:19:20;30.40;37.00
32187;DHT22;18686;53.084;8.872;2023-07-20T12:21:57;28.90;38.20
32187;DHT22;18686;53.084;8.872;2023-07-20T12:24:27;27.80;39.30
32187;DHT22;18686;53.084;8.872;2023-07-20T12:26:58;27.00;40.40
32187;DHT22;18686;53.084;8.872;2023-07-20T12:29:26;26.50;41.50
32187;DHT22;18686;53.084;8.872;2023-07-20T12:31:55;26.40;43.80
32187;DHT22;18686;53.084;8.872;2023-07-20T12:34:23;28.20;44.50
32187;DHT22;18686;53.084;8.872;2023-07-20T12:36:52;30.10;40.20
32187;DHT22;18686;53.084;8.872;2023-07-20T12:39:21;31.80;36.50
32187;DHT22;18686;53.084;8.872;2023-07-20T12:41:49;32.50;35.40
32187;DHT22;18686;53.084;8.872;2023-07-20T12:44:19;34.40;33.90
32187;DHT22;18686;53.084;8.872;2023-07-20T12:46:48;36.90;31.90
32187;DHT22;18686;53.084;8.872;2023-07-20T12:49:16;38.80;29.70
32187;DHT22;18686;53.084;8.872;2023-07-20T12:51:45;40.80;28.90
32187;DHT22;18686;53.084;8.872;2023-07-20T12:54:13;41.40;27.80
32187;DHT22;18686;53.084;8.872;2023-07-20T12:56:42;40.50;28.00
32187;DHT22;18686;53.084;8.872;2023-07-20T12:59:13;38.90;28.40
32187;DHT22;18686;53.084;8.872;2023-07-20T13:01:43;37.90;29.30
32187;DHT22;18686;53.084;8.872;2023-07-20T13:04:11;36.70;29.00
32187;DHT22;18686;53.084;8.872;2023-07-20T13:06:40;36.40;29.70
32187;DHT22;18686;53.084;8.872;2023-07-20T13:09:09;37.70;29.70
32187;DHT22;18686;53.084;8.872;2023-07-20T13:11:38;39.50;29.20
32187;DHT22;18686;53.084;8.872;2023-07-20T13:14:06;41.80;28.20
32187;DHT22;18686;53.084;8.872;2023-07-20T13:16:34;43.70;27.00
32187;DHT22;18686;53.084;8.872;2023-07-20T13:19:04;45.50;26.40
32187;DHT22;18686;53.084;8.872;2023-07-20T13:21:32;46.60;25.90
32187;DHT22;18686;53.084;8.872;2023-07-20T13:24:01;46.30;25.10
32187;DHT22;18686;53.084;8.872;2023-07-20T13:26:30;44.40;25.00
32187;DHT22;18686;53.084;8.872;2023-07-20T13:28:59;42.10;25.80
32187;DHT22;18686;53.084;8.872;2023-07-20T13:31:27;39.70;26.90
32187;DHT22;18686;53.084;8.872;2023-07-20T13:33:59;37.90;27.70
32187;DHT22;18686;53.084;8.872;2023-07-20T13:36:31;36.50;27.90
32187;DHT22;18686;53.084;8.872;2023-07-20T13:39:02;35.80;28.50
32187;DHT22;18686;53.084;8.872;2023-07-20T13:41:32;36.30;29.20
32187;DHT22;18686;53.084;8.872;2023-07-20T13:44:01;37.00;29.10
32187;DHT22;18686;53.084;8.872;2023-07-20T13:46:33;37.10;28.20
32187;DHT22;18686;53.084;8.872;2023-07-20T13:49:04;37.80;27.80
32187;DHT22;18686;53.084;8.872;2023-07-20T13:51:41;38.50;27.80
32187;DHT22;18686;53.084;8.872;2023-07-20T13:54:10;39.90;27.60
32187;DHT22;18686;53.084;8.872;2023-07-20T13:56:41;41.40;26.60
32187;DHT22;18686;53.084;8.872;2023-07-20T13:59:10;42.00;26.30
32187;DHT22;18686;53.084;8.872;2023-07-20T14:01:41;41.40;26.70
32187;DHT22;18686;53.084;8.872;2023-07-20T14:04:10;39.60;26.90
32187;DHT22;18686;53.084;8.872;2023-07-20T14:06:38;38.00;27.50
32187;DHT22;18686;53.084;8.872;2023-07-20T14:09:08;36.40;28.40
32187;DHT22;18686;53.084;8.872;2023-07-20T14:11:37;34.70;29.80
32187;DHT22;18686;53.084;8.872;2023-07-20T14:14:08;33.00;31.20
32187;DHT22;18686;53.084;8.872;2023-07-20T14:16:36;31.40;33.40
32187;DHT22;18686;53.084;8.872;2023-07-20T14:19:05;30.10;35.10
32187;DHT22;18686;53.084;8.872;2023-07-20T14:21:33;29.10;37.30
32187;DHT22;18686;53.084;8.872;2023-07-20T14:24:05;28.10;38.50
32187;DHT22;18686;53.084;8.872;2023-07-20T14:26:37;27.30;39.90
32187;DHT22;18686;53.084;8.872;2023-07-20T14:29:10;26.70;40.70
32187;DHT22;18686;53.084;8.872;2023-07-20T14:31:38;26.20;42.30
32187;DHT22;18686;53.084;8.872;2023-07-20T14:34:06;25.60;43.30
32187;DHT22;18686;53.084;8.872;2023-07-20T14:36:35;25.20;43.90
32187;DHT22;18686;53.084;8.872;2023-07-20T14:39:03;24.80;44.50
32187;DHT22;18686;53.084;8.872;2023-07-20T14:41:32;24.60;44.50
32187;DHT22;18686;53.084;8.872;2023-07-20T14:44:01;24.40;44.70
32187;DHT22;18686;53.084;8.872;2023-07-20T14:46:31;24.30;44.50
32187;DHT22;18686;53.084;8.872;2023-07-20T14:49:00;24.30;44.20
32187;DHT22;18686;53.084;8.872;2023-07-20T14:51:29;24.30;45.00
32187;DHT22;18686;53.084;8.872;2023-07-20T14:54:03;24.30;44.70
32187;DHT22;18686;53.084;8.872;2023-07-20T14:56:31;24.40;45.10
32187;DHT22;18686;53.084;8.872;2023-07-20T14:59:00;24.50;45.60
32187;DHT22;18686;53.084;8.872;2023-07-20T15:01:29;24.50;46.10
32187;DHT22;18686;53.084;8.872;2023-07-20T15:03:58;24.70;46.10
32187;DHT22;18686;53.084;8.872;2023-07-20T15:06:28;24.90;45.70
32187;DHT22;18686;53.084;8.872;2023-07-20T15:08:57;25.00;46.00
32187;DHT22;18686;53.084;8.872;2023-07-20T15:11:28;25.20;46.70
32187;DHT22;18686;53.084;8.872;2023-07-20T15:13:56;25.20;46.30
32187;DHT22;18686;53.084;8.872;2023-07-20T15:16:24;25.30;46.60
32187;DHT22;18686;53.084;8.872;2023-07-20T15:18:55;25.20;46.70
32187;DHT22;18686;53.084;8.872;2023-07-20T15:21:23;25.20;46.90
32187;DHT22;18686;53.084;8.872;2023-07-20T15:23:53;24.90;47.10
32187;DHT22;18686;53.084;8.872;2023-07-20T15:26:21;24.70;47.60
32187;DHT22;18686;53.084;8.872;2023-07-20T15:28:50;24.50;48.20
32187;DHT22;18686;53.084;8.872;2023-07-20T15:31:19;24.30;49.00
32187;DHT22;18686;53.084;8.872;2023-07-20T15:34:09;24.20;49.30
32187;DHT22;18686;53.084;8.872;2023-07-20T15:36:40;24.00;49.50
32187;DHT22;18686;53.084;8.872;2023-07-20T15:39:08;23.90;49.10
32187;DHT22;18686;53.084;8.872;2023-07-20T15:41:37;23.80;48.80
32187;DHT22;18686;53.084;8.872;2023-07-20T15:44:05;23.70;48.90
32187;DHT22;18686;53.084;8.872;2023-07-20T15:46:47;23.60;49.40
32187;DHT22;18686;53.084;8.872;2023-07-20T15:49:17;23.40;50.00